Time;durP1;ratioP1;P1;durP2;ratioP2;P2;SDS_P1;SDS_P2;PMS_P1;PMS_P2;Temp;Humidity;BMP_temperature;BMP_pressure;BME280_temperature;BME280_humidity;BME280_pressure;Samples;Min_cycle;Max_cycle;Signal;HPM_P1;HPM_P2
2022/12/24 00:01:26;;;;;;;;;;;;;;;-143.57;100.00;51330.81;5057979;28;19978;-65
2022/12/24 00:03:52;;;;;;;;;;;;;;;-143.57;100.00;51350.69;5059530;28;20012;-62
2022/12/24 00:06:21;;;;;;;;;;;;;;;-143.57;100.00;51368.59;5056791;28;19929;-62
2022/12/24 00:08:47;;;;;;;;;;;;;;;-143.57;100.00;51318.88;5059956;28;19938;-62
2022/12/24 00:11:14;;;;;;;;;;;;;;;-143.57;100.00;51346.72;5058781;28;19928;-62
2022/12/24 00:13:41;;;;;;;;;;;;;;;-143.57;100.00;51358.66;5060760;28;19939;-62
2022/12/24 00:16:07;;;;;;;;;;;;;;;-143.57;100.00;51356.66;5057668;28;20519;-62
2022/12/24 00:18:34;;;;;;;;;;;;;;;-143.57;100.00;51338.78;5059860;28;19986;-62
2022/12/24 00:21:08;;;;;;;;;;;;;;;-143.57;100.00;51370.56;5055049;28;20054;-62
2022/12/24 00:23:35;;;;;;;;;;;;;;;-143.57;100.00;51366.59;5058688;28;19931;-63
2022/12/24 00:26:02;;;;;;;;;;;;;;;-143.57;100.00;51398.41;5055187;28;19943;-63
2022/12/24 00:28:28;;;;;;;;;;;;;;;-143.57;100.00;51370.56;5055947;28;20017;-64
2022/12/24 00:30:55;;;;;;;;;;;;;;;-143.57;100.00;51330.81;5059208;28;19959;-62
2022/12/24 00:33:22;;;;;;;;;;;;;;;-143.57;100.00;51338.78;5057149;28;20445;-62
2022/12/24 00:35:51;;;;;;;;;;;;;;;-143.57;100.00;51362.63;5058794;28;19971;-62
2022/12/24 00:38:17;;;;;;;;;;;;;;;-143.57;100.00;51366.59;5058124;28;20481;-63
2022/12/24 00:40:44;;;;;;;;;;;;;;;-143.57;100.00;51370.56;5058000;28;19929;-62
2022/12/24 00:43:11;;;;;;;;;;;;;;;-143.57;100.00;51334.78;5056320;28;19960;-62
2022/12/24 00:45:37;;;;;;;;;;;;;;;-143.57;100.00;51354.66;5060066;28;20749;-63
2022/12/24 00:48:04;;;;;;;;;;;;;;;-143.57;100.00;51326.84;5057218;28;19935;-63
2022/12/24 00:50:31;;;;;;;;;;;;;;;-143.57;100.00;51342.75;5061137;28;20572;-65
2022/12/24 00:52:57;;;;;;;;;;;;;;;-143.57;100.00;51354.66;5059651;28;19928;-60
2022/12/24 00:55:24;;;;;;;;;;;;;;;-143.57;100.00;51354.66;5062942;28;19929;-63
2022/12/24 00:57:51;;;;;;;;;;;;;;;-143.57;100.00;51306.97;5057301;28;19921;-62
2022/12/24 01:00:17;;;;;;;;;;;;;;;-143.57;100.00;51334.78;5057651;28;19933;-63
2022/12/24 01:02:44;;;;;;;;;;;;;;;-143.57;100.00;51358.66;5058031;28;19970;-63
2022/12/24 01:05:11;;;;;;;;;;;;;;;-143.57;100.00;51372.56;5055937;28;20021;-63
2022/12/24 01:07:42;;;;;;;;;;;;;;;-143.57;100.00;51322.88;5057815;28;20075;-63
2022/12/24 01:10:10;;;;;;;;;;;;;;;-143.57;100.00;51374.56;5056930;28;19928;-62
2022/12/24 01:12:37;;;;;;;;;;;;;;;-143.57;100.00;51346.72;5060131;28;19928;-63
2022/12/24 01:15:04;;;;;;;;;;;;;;;-143.57;100.00;51366.59;5056611;28;19924;-62
2022/12/24 01:17:32;;;;;;;;;;;;;;;-143.57;100.00;51366.59;5059348;28;19928;-63
2022/12/24 01:19:58;;;;;;;;;;;;;;;-143.57;100.00;51314.91;5056196;28;19978;-63
2022/12/24 01:22:25;;;;;;;;;;;;;;;-143.57;100.00;51366.59;5059201;28;19925;-63
2022/12/24 01:24:52;;;;;;;;;;;;;;;-143.57;100.00;51326.84;5053497;28;19939;-62
2022/12/24 01:27:18;;;;;;;;;;;;;;;-143.57;100.00;51378.53;5057526;28;20010;-62
2022/12/24 01:29:45;;;;;;;;;;;;;;;-143.57;100.00;51368.59;5056783;28;19928;-63
2022/12/24 01:32:12;;;;;;;;;;;;;;;-143.57;100.00;51374.56;5055951;28;19994;-63
2022/12/24 01:34:38;;;;;;;;;;;;;;;-143.57;100.00;51342.75;5057707;28;19928;-63
2022/12/24 01:37:06;;;;;;;;;;;;;;;-143.57;100.00;51354.66;5056659;28;19924;-63
2022/12/24 01:39:32;;;;;;;;;;;;;;;-143.57;100.00;51358.66;5058668;28;19935;-62
2022/12/24 01:44:47;;;;;;;;;;;;;;;-143.57;100.00;51366.59;5056725;28;20387;-63
2022/12/24 01:47:19;;;;;;;;;;;;;;;-143.57;100.00;51366.59;5054925;28;20425;-62
2022/12/24 01:49:52;;;;;;;;;;;;;;;-143.57;100.00;51362.63;5056725;28;19930;-63
2022/12/24 01:52:21;;;;;;;;;;;;;;;-143.57;100.00;51350.69;5054941;28;19928;-64
2022/12/24 01:54:53;;;;;;;;;;;;;;;-143.57;100.00;51366.59;5058949;28;20399;-63
2022/12/24 01:57:20;;;;;;;;;;;;;;;-143.57;100.00;51306.97;5054064;28;20439;-62
2022/12/24 01:59:50;;;;;;;;;;;;;;;-143.57;100.00;51354.66;5058730;28;19959;-63
2022/12/24 02:02:18;;;;;;;;;;;;;;;-143.57;100.00;51334.78;5056094;28;19932;-61
2022/12/24 02:05:05;;;;;;;;;;;;;;;-143.57;100.00;51356.66;5057316;28;20348;-62
2022/12/24 02:07:32;;;;;;;;;;;;;;;-143.57;100.00;51350.69;5056078;28;19935;-63
2022/12/24 02:10:00;;;;;;;;;;;;;;;-143.57;100.00;51394.44;5057796;28;20475;-62
2022/12/24 02:12:29;;;;;;;;;;;;;;;-143.57;100.00;51342.75;5057199;28;19933;-62
2022/12/24 02:14:55;;;;;;;;;;;;;;;-143.57;100.00;51310.94;5055989;28;19968;-63
2022/12/24 02:17:28;;;;;;;;;;;;;;;-143.57;100.00;51342.75;5058740;28;20008;-63
2022/12/24 02:19:54;;;;;;;;;;;;;;;-143.57;100.00;51354.66;5054043;28;19974;-63
2022/12/24 02:22:30;;;;;;;;;;;;;;;-143.57;100.00;51314.91;5059077;28;19925;-62
2022/12/24 02:25:00;;;;;;;;;;;;;;;-143.57;100.00;51382.50;5054361;28;19982;-62
2022/12/24 02:27:32;;;;;;;;;;;;;;;-143.57;100.00;51390.47;5055701;28;19940;-62
2022/12/24 02:30:02;;;;;;;;;;;;;;;-143.57;100.00;51346.72;5058427;28;19985;-62
2022/12/24 02:32:49;;;;;;;;;;;;;;;-143.57;100.00;51338.78;5061930;28;19929;-62
2022/12/24 02:35:21;;;;;;;;;;;;;;;-143.57;100.00;51314.91;5034103;28;20006;-62
2022/12/24 02:38:00;;;;;;;;;;;;;;;-143.57;100.00;51330.81;5059113;28;19932;-61
2022/12/24 02:40:28;;;;;;;;;;;;;;;-143.57;100.00;51314.91;5055170;28;20307;-62
2022/12/24 02:43:01;;;;;;;;;;;;;;;-143.57;100.00;51332.81;5055883;28;19936;-62
2022/12/24 02:45:30;;;;;;;;;;;;;;;-143.57;100.00;51370.56;5057160;28;20702;-62
2022/12/24 02:47:57;;;;;;;;;;;;;;;-143.57;100.00;51358.66;5063135;28;19958;-62
2022/12/24 02:50:24;;;;;;;;;;;;;;;-143.57;100.00;51362.63;5058471;28;19936;-62
2022/12/24 02:52:51;;;;;;;;;;;;;;;-143.57;100.00;51338.78;5058294;28;19975;-62
2022/12/24 02:55:22;;;;;;;;;;;;;;;-143.57;100.00;51374.56;5059520;28;19932;-62
2022/12/24 02:58:01;;;;;;;;;;;;;;;-143.57;100.00;51398.41;5058046;28;19928;-62
2022/12/24 03:00:34;;;;;;;;;;;;;;;-143.57;100.00;51318.88;5059010;28;19931;-62
2022/12/24 03:03:02;;;;;;;;;;;;;;;-143.57;100.00;51360.63;5062734;28;20174;-62
2022/12/24 03:05:50;;;;;;;;;;;;;;;-143.57;100.00;51350.69;5060885;28;19934;-63
2022/12/24 03:08:27;;;;;;;;;;;;;;;-143.57;100.00;51326.84;5058212;28;20626;-62
2022/12/24 03:11:01;;;;;;;;;;;;;;;-143.57;100.00;51378.53;5058958;28;19929;-62
2022/12/24 03:13:28;;;;;;;;;;;;;;;-143.57;100.00;51326.84;5058308;28;20429;-62
2022/12/24 03:15:55;;;;;;;;;;;;;;;-143.57;100.00;51326.84;5060970;28;19931;-63
2022/12/24 03:18:23;;;;;;;;;;;;;;;-143.57;100.00;51354.66;5057783;28;19990;-62
2022/12/24 03:20:59;;;;;;;;;;;;;;;-143.57;100.00;51346.72;5061317;28;19933;-62
2022/12/24 03:23:25;;;;;;;;;;;;;;;-143.57;100.00;51336.78;5057095;28;19932;-62
2022/12/24 03:25:52;;;;;;;;;;;;;;;-143.57;100.00;51358.66;5060647;28;19920;-63
2022/12/24 03:28:23;;;;;;;;;;;;;;;-143.57;100.00;51362.63;5054826;28;19967;-62
2022/12/24 03:30:50;;;;;;;;;;;;;;;-143.57;100.00;51354.66;5056895;28;20757;-63
2022/12/24 03:33:17;;;;;;;;;;;;;;;-143.57;100.00;51338.78;5058991;28;20979;-63
2022/12/24 03:35:43;;;;;;;;;;;;;;;-143.57;100.00;51346.72;5059865;28;19931;-62
2022/12/24 03:38:10;;;;;;;;;;;;;;;-143.57;100.00;51326.84;5059229;28;19974;-63
2022/12/24 03:40:37;;;;;;;;;;;;;;;-143.57;100.00;51350.69;5057508;28;20467;-63
2022/12/24 03:43:03;;;;;;;;;;;;;;;-143.57;100.00;51303.00;5060082;28;19924;-63
2022/12/24 03:45:30;;;;;;;;;;;;;;;-143.57;100.00;51330.81;5056652;28;20002;-63
2022/12/24 03:47:57;;;;;;;;;;;;;;;-143.57;100.00;51322.88;5058183;28;20040;-62
2022/12/24 03:50:23;;;;;;;;;;;;;;;-143.57;100.00;51322.88;5062207;28;19936;-62
2022/12/24 03:52:50;;;;;;;;;;;;;;;-143.57;100.00;51358.66;5057157;28;20546;-63
2022/12/24 03:55:16;;;;;;;;;;;;;;;-143.57;100.00;51354.66;5058682;28;19960;-62
2022/12/24 03:57:43;;;;;;;;;;;;;;;-143.57;100.00;51378.53;5060842;28;19929;-64
2022/12/24 04:00:10;;;;;;;;;;;;;;;-143.57;100.00;51338.78;5060105;28;19938;-62
2022/12/24 04:02:40;;;;;;;;;;;;;;;-143.57;100.00;51364.63;5061474;28;19936;-62
2022/12/24 04:05:07;;;;;;;;;;;;;;;-143.57;100.00;51350.69;5059069;28;20025;-63
2022/12/24 04:07:34;;;;;;;;;;;;;;;-143.57;100.00;51318.88;5060583;28;19993;-63
2022/12/24 04:10:00;;;;;;;;;;;;;;;-143.57;100.00;51328.81;5056033;28;19932;-64
2022/12/24 04:12:27;;;;;;;;;;;;;;;-143.57;100.00;51342.75;5058987;28;20791;-63
2022/12/24 04:14:53;;;;;;;;;;;;;;;-143.57;100.00;51386.47;5060764;28;19936;-62
2022/12/24 04:17:20;;;;;;;;;;;;;;;-143.57;100.00;51336.78;5058472;28;19933;-63
2022/12/24 04:19:47;;;;;;;;;;;;;;;-143.57;100.00;51318.88;5059117;28;19932;-62
2022/12/24 04:22:13;;;;;;;;;;;;;;;-143.57;100.00;51356.66;5058243;28;19924;-63
2022/12/24 04:24:40;;;;;;;;;;;;;;;-143.57;100.00;51322.88;5058882;28;19928;-62
2022/12/24 04:27:06;;;;;;;;;;;;;;;-143.57;100.00;51330.81;5053666;28;20007;-62
2022/12/24 04:29:34;;;;;;;;;;;;;;;-143.57;100.00;51275.16;5060702;28;20324;-62
2022/12/24 04:32:00;;;;;;;;;;;;;;;-143.57;100.00;51326.84;5056262;28;19933;-62
2022/12/24 04:34:27;;;;;;;;;;;;;;;-143.57;100.00;51366.59;5059541;28;19929;-62
2022/12/24 04:36:54;;;;;;;;;;;;;;;-143.57;100.00;51346.72;5056308;28;19928;-62
2022/12/24 04:39:21;;;;;;;;;;;;;;;-143.57;100.00;51372.56;5059365;28;19932;-62
2022/12/24 04:41:47;;;;;;;;;;;;;;;-143.57;100.00;51330.81;5056866;28;19929;-63
2022/12/24 04:44:14;;;;;;;;;;;;;;;-143.57;100.00;51378.53;5055558;28;19971;-62
2022/12/24 04:46:41;;;;;;;;;;;;;;;-143.57;100.00;51350.69;5059267;28;19946;-62
2022/12/24 04:49:07;;;;;;;;;;;;;;;-143.57;100.00;51334.78;5056609;28;19956;-62
2022/12/24 04:51:34;;;;;;;;;;;;;;;-143.57;100.00;51346.72;5059261;28;21522;-63
2022/12/24 04:54:01;;;;;;;;;;;;;;;-143.57;100.00;51364.63;5056455;28;19954;-62
2022/12/24 04:56:31;;;;;;;;;;;;;;;-143.57;100.00;51326.84;5059040;28;19932;-62
2022/12/24 04:58:58;;;;;;;;;;;;;;;-143.57;100.00;51338.78;5056672;28;19932;-63
2022/12/24 05:01:27;;;;;;;;;;;;;;;-143.57;100.00;51350.69;5057566;28;19932;-63
2022/12/24 05:03:54;;;;;;;;;;;;;;;-143.57;100.00;51362.63;5055195;28;19927;-63
2022/12/24 05:06:30;;;;;;;;;;;;;;;-143.57;100.00;51364.63;5058877;28;20419;-64
2022/12/24 05:08:58;;;;;;;;;;;;;;;-143.57;100.00;51382.50;5059627;28;20470;-63
2022/12/24 05:11:25;;;;;;;;;;;;;;;-143.57;100.00;51342.75;5072245;28;19935;-63
2022/12/24 05:13:51;;;;;;;;;;;;;;;-143.57;100.00;51346.72;5076094;28;19924;-64
2022/12/24 05:16:19;;;;;;;;;;;;;;;-143.57;100.00;51320.88;5075983;28;19924;-63
2022/12/24 05:18:46;;;;;;;;;;;;;;;-143.57;100.00;51342.75;5079174;28;19927;-63
2022/12/24 05:21:14;;;;;;;;;;;;;;;-143.57;100.00;51342.75;5074278;28;20482;-63
2022/12/24 05:26:26;;;;;;;;;;;;;;;-143.57;100.00;51346.72;5073973;28;19993;-63
2022/12/24 05:28:58;;;;;;;;;;;;;;;-143.57;100.00;51344.72;5077802;28;19951;-64
2022/12/24 05:31:25;;;;;;;;;;;;;;;-143.57;100.00;51326.84;5077338;28;20499;-63
2022/12/24 05:33:53;;;;;;;;;;;;;;;-143.57;100.00;51328.81;5080149;28;20028;-64
2022/12/24 05:36:20;;;;;;;;;;;;;;;-143.57;100.00;51334.78;5076662;28;20754;-63
2022/12/24 05:38:47;;;;;;;;;;;;;;;-143.57;100.00;51334.78;5074827;28;19928;-63
2022/12/24 05:41:14;;;;;;;;;;;;;;;-143.57;100.00;51334.78;5074810;28;19932;-65
2022/12/24 05:43:41;;;;;;;;;;;;;;;-143.57;100.00;51350.69;5076077;28;19928;-63
2022/12/24 05:46:09;;;;;;;;;;;;;;;-143.57;100.00;51366.59;5074071;28;20128;-63
2022/12/24 05:48:36;;;;;;;;;;;;;;;-143.57;100.00;51326.84;5074964;28;19928;-64
2022/12/24 05:51:04;;;;;;;;;;;;;;;-143.57;100.00;51368.59;5067632;28;19939;-63
2022/12/24 05:53:31;;;;;;;;;;;;;;;-143.57;100.00;51374.56;5067686;28;19939;-63
2022/12/24 05:56:05;;;;;;;;;;;;;;;-143.57;100.00;51346.72;5075749;28;19988;-63
2022/12/24 05:58:31;;;;;;;;;;;;;;;-143.57;100.00;51362.63;5073327;28;19939;-63
2022/12/24 06:00:59;;;;;;;;;;;;;;;-143.57;100.00;51338.78;5070604;28;19928;-64
2022/12/24 06:03:26;;;;;;;;;;;;;;;-143.57;100.00;51358.66;5072457;28;20441;-65
2022/12/24 06:05:58;;;;;;;;;;;;;;;-143.57;100.00;51362.63;5077177;28;19928;-64
2022/12/24 06:08:26;;;;;;;;;;;;;;;-143.57;100.00;51342.75;5072666;28;20043;-63
2022/12/24 06:10:53;;;;;;;;;;;;;;;-143.57;100.00;51404.38;5072523;28;19928;-64
2022/12/24 06:13:20;;;;;;;;;;;;;;;-143.57;100.00;51374.56;5073482;28;19928;-63
2022/12/24 06:15:47;;;;;;;;;;;;;;;-143.57;100.00;51390.47;5070887;28;20059;-64
2022/12/24 06:18:13;;;;;;;;;;;;;;;-143.57;100.00;51376.53;5061493;28;20019;-63
2022/12/24 06:20:40;;;;;;;;;;;;;;;-143.57;100.00;51354.66;5068917;28;19993;-64
2022/12/24 06:23:07;;;;;;;;;;;;;;;-143.57;100.00;51382.50;5078528;28;21388;-63
2022/12/24 06:25:33;;;;;;;;;;;;;;;-143.57;100.00;51398.41;5078173;28;19924;-63
2022/12/24 06:28:00;;;;;;;;;;;;;;;-143.57;100.00;51358.66;5053454;28;20015;-64
2022/12/24 06:30:26;;;;;;;;;;;;;;;-143.57;100.00;51370.56;5075696;28;20775;-64
2022/12/24 06:32:53;;;;;;;;;;;;;;;-143.57;100.00;51350.69;5078648;28;19924;-63
2022/12/24 06:35:19;;;;;;;;;;;;;;;-143.57;100.00;51384.50;5075865;28;20026;-63
2022/12/24 06:37:46;;;;;;;;;;;;;;;-143.57;100.00;51388.47;5080474;28;19928;-63
2022/12/24 06:40:13;;;;;;;;;;;;;;;-143.57;100.00;51346.72;5074578;28;20023;-64
2022/12/24 06:42:39;;;;;;;;;;;;;;;-143.57;100.00;51362.63;5079968;28;20492;-64
2022/12/24 06:45:06;;;;;;;;;;;;;;;-143.57;100.00;51366.59;5076227;28;20007;-63
2022/12/24 06:47:34;;;;;;;;;;;;;;;-143.57;100.00;51370.56;5053618;28;19924;-62
2022/12/24 06:50:01;;;;;;;;;;;;;;;-143.57;100.00;51370.56;5068029;28;19928;-64
2022/12/24 06:52:27;;;;;;;;;;;;;;;-143.57;100.00;51358.66;5069260;28;19932;-64
2022/12/24 06:54:54;;;;;;;;;;;;;;;-143.57;100.00;51370.56;5080742;28;19924;-64
2022/12/24 06:57:20;;;;;;;;;;;;;;;-143.57;100.00;51342.75;5068188;28;19930;-63
2022/12/24 06:59:47;;;;;;;;;;;;;;;-143.57;100.00;51358.66;5080893;28;19932;-63
2022/12/24 07:02:14;;;;;;;;;;;;;;;-143.57;100.00;51342.75;5078583;28;19924;-64
2022/12/24 07:04:41;;;;;;;;;;;;;;;-143.57;100.00;51346.72;5058505;28;20775;-64
2022/12/24 07:07:07;;;;;;;;;;;;;;;-143.57;100.00;51370.56;5077597;28;19940;-64
2022/12/24 07:09:35;;;;;;;;;;;;;;;-143.57;100.00;51368.59;5075481;28;20621;-63
2022/12/24 07:12:02;;;;;;;;;;;;;;;-143.57;100.00;51400.41;5077653;28;19928;-63
2022/12/24 07:14:28;;;;;;;;;;;;;;;-143.57;100.00;51368.59;5078089;28;19931;-62
2022/12/24 07:16:56;;;;;;;;;;;;;;;-143.57;100.00;51360.63;5077361;28;20523;-62
2022/12/24 07:19:25;;;;;;;;;;;;;;;-143.57;100.00;51390.47;5069987;28;19934;-63
2022/12/24 07:21:51;;;;;;;;;;;;;;;-143.57;100.00;51418.28;5077265;28;19943;-63
2022/12/24 07:24:19;;;;;;;;;;;;;;;-143.57;100.00;51374.56;5051568;28;19940;-63
2022/12/24 07:26:45;;;;;;;;;;;;;;;-143.57;100.00;51346.72;5077668;28;19959;-62
2022/12/24 07:29:12;;;;;;;;;;;;;;;-143.57;100.00;51358.66;5073947;28;19928;-62
2022/12/24 07:31:38;;;;;;;;;;;;;;;-143.57;100.00;51360.63;5078053;28;20014;-62
2022/12/24 07:34:05;;;;;;;;;;;;;;;-143.57;100.00;51372.56;5056032;28;20458;-62
2022/12/24 07:36:32;;;;;;;;;;;;;;;-143.57;100.00;51358.66;5070812;28;19934;-63
2022/12/24 07:38:58;;;;;;;;;;;;;;;-143.57;100.00;51374.56;5073877;28;21243;-62
2022/12/24 07:41:25;;;;;;;;;;;;;;;-143.57;100.00;51346.72;5078125;28;19931;-62
2022/12/24 07:43:52;;;;;;;;;;;;;;;-143.57;100.00;51362.63;5075521;28;20647;-61
2022/12/24 07:46:18;;;;;;;;;;;;;;;-143.57;100.00;51370.56;5079195;28;19934;-61
2022/12/24 07:48:45;;;;;;;;;;;;;;;-143.57;100.00;51378.53;5076615;28;20652;-62
2022/12/24 07:51:12;;;;;;;;;;;;;;;-143.57;100.00;51378.53;5070336;28;20323;-62
2022/12/24 07:53:38;;;;;;;;;;;;;;;-143.57;100.00;51384.50;5074283;28;20398;-62
2022/12/24 07:56:05;;;;;;;;;;;;;;;-143.57;100.00;51360.63;5076456;28;19971;-62
2022/12/24 07:58:38;;;;;;;;;;;;;;;-143.57;100.00;51350.69;5077867;28;20187;-62
2022/12/24 08:01:05;;;;;;;;;;;;;;;-143.57;100.00;51374.56;5075225;28;20419;-62
2022/12/24 08:03:31;;;;;;;;;;;;;;;-143.57;100.00;51366.59;5080079;28;20410;-62
2022/12/24 08:05:58;;;;;;;;;;;;;;;-143.57;100.00;51386.47;5076149;28;20044;-62
2022/12/24 08:08:25;;;;;;;;;;;;;;;-143.57;100.00;51402.38;5079708;28;19935;-62
2022/12/24 08:10:52;;;;;;;;;;;;;;;-143.57;100.00;51360.63;5070933;28;19938;-62
2022/12/24 08:13:19;;;;;;;;;;;;;;;-143.57;100.00;51362.63;5081143;28;19931;-62
2022/12/24 08:15:45;;;;;;;;;;;;;;;-143.57;100.00;51410.34;5073299;28;19971;-62
2022/12/24 08:18:12;;;;;;;;;;;;;;;-143.57;100.00;51368.59;5065433;28;19928;-62
2022/12/24 08:20:39;;;;;;;;;;;;;;;-143.57;100.00;51366.59;5050526;28;19934;-62
2022/12/24 08:23:07;;;;;;;;;;;;;;;-143.57;100.00;51378.53;5073400;28;20622;-63
2022/12/24 08:25:34;;;;;;;;;;;;;;;-143.57;100.00;51386.47;5062085;28;20458;-62
2022/12/24 08:28:00;;;;;;;;;;;;;;;-143.57;100.00;51356.66;5071552;28;19927;-62
2022/12/24 08:30:27;;;;;;;;;;;;;;;-143.57;100.00;51390.47;5056235;28;19928;-61
2022/12/24 08:32:54;;;;;;;;;;;;;;;-143.57;100.00;51390.47;5067282;28;20411;-61
2022/12/24 08:35:20;;;;;;;;;;;;;;;-143.57;100.00;51342.75;5076574;28;20621;-62
2022/12/24 08:37:47;;;;;;;;;;;;;;;-143.57;100.00;51366.59;5068745;28;19939;-62
2022/12/24 08:40:14;;;;;;;;;;;;;;;-143.57;100.00;51338.78;5053261;28;20426;-63
2022/12/24 08:42:40;;;;;;;;;;;;;;;-143.57;100.00;51362.63;5068916;28;20359;-63
2022/12/24 08:45:08;;;;;;;;;;;;;;;-143.57;100.00;51372.56;5070187;28;19928;-63
2022/12/24 08:47:38;;;;;;;;;;;;;;;-143.57;100.00;51346.72;5065708;28;20357;-63
2022/12/24 08:50:05;;;;;;;;;;;;;;;-143.57;100.00;51394.44;5072211;28;19929;-63
2022/12/24 08:52:32;;;;;;;;;;;;;;;-143.57;100.00;51348.72;5061048;28;20650;-63
2022/12/24 08:54:58;;;;;;;;;;;;;;;-143.57;100.00;51380.50;5063152;28;19955;-63
2022/12/24 08:57:25;;;;;;;;;;;;;;;-143.57;100.00;51414.31;5077105;28;19979;-63
2022/12/24 08:59:51;;;;;;;;;;;;;;;-143.57;100.00;51372.56;5075170;28;20043;-63
2022/12/24 09:02:18;;;;;;;;;;;;;;;-143.57;100.00;51398.41;5078713;28;20016;-63
2022/12/24 09:04:45;;;;;;;;;;;;;;;-143.57;100.00;51388.47;5075896;28;19932;-63
2022/12/24 09:07:12;;;;;;;;;;;;;;;-143.57;100.00;51374.56;5051596;28;20748;-63
2022/12/24 09:09:38;;;;;;;;;;;;;;;-143.57;100.00;51362.63;5072550;28;19931;-63
2022/12/24 09:12:06;;;;;;;;;;;;;;;-143.57;100.00;51346.72;5078684;28;20009;-63
2022/12/24 09:14:33;;;;;;;;;;;;;;;-143.57;100.00;51362.63;5067367;28;19936;-63
2022/12/24 09:16:59;;;;;;;;;;;;;;;-143.57;100.00;51370.56;5075812;28;20462;-62
2022/12/24 09:19:26;;;;;;;;;;;;;;;-143.57;100.00;51358.66;5075391;28;21071;-63
2022/12/24 09:21:53;;;;;;;;;;;;;;;-143.57;100.00;51368.59;5075537;28;19932;-63
2022/12/24 09:24:20;;;;;;;;;;;;;;;-143.57;100.00;51392.44;5067289;28;20027;-62
2022/12/24 09:26:48;;;;;;;;;;;;;;;-143.57;100.00;51386.47;5075800;28;20748;-62
2022/12/24 09:29:23;;;;;;;;;;;;;;;-143.57;100.00;51358.66;5076878;28;19932;-62
2022/12/24 09:31:49;;;;;;;;;;;;;;;-143.57;100.00;51350.69;5076714;28;19932;-63
2022/12/24 09:34:16;;;;;;;;;;;;;;;-143.57;100.00;51370.56;5080447;28;19924;-63
2022/12/24 09:36:43;;;;;;;;;;;;;;;-143.57;100.00;51366.59;5075991;28;20442;-62
2022/12/24 09:39:09;;;;;;;;;;;;;;;-143.57;100.00;51368.59;5079002;28;19932;-62
2022/12/24 09:41:42;;;;;;;;;;;;;;;-143.57;100.00;51366.59;5072158;27;20054;-63
2022/12/24 09:44:27;;;;;;;;;;;;;;;-143.57;100.00;51410.34;5072712;28;20407;-63
2022/12/24 09:46:53;;;;;;;;;;;;;;;-143.57;100.00;51410.34;5071411;28;19924;-63
2022/12/24 09:49:22;;;;;;;;;;;;;;;-143.57;100.00;51378.53;5077115;28;19928;-62
2022/12/24 09:51:51;;;;;;;;;;;;;;;-143.57;100.00;51392.44;5071438;28;19924;-63
2022/12/24 09:54:24;;;;;;;;;;;;;;;-143.57;100.00;51336.78;5071695;28;19958;-63
2022/12/24 09:56:52;;;;;;;;;;;;;;;-143.57;100.00;51358.66;5071119;28;20018;-63
2022/12/24 09:59:21;;;;;;;;;;;;;;;-143.57;100.00;51362.63;5078054;28;19973;-63
2022/12/24 10:01:49;;;;;;;;;;;;;;;-143.57;100.00;51342.75;5079815;28;19939;-63
2022/12/24 10:04:17;;;;;;;;;;;;;;;-143.57;100.00;51378.53;5077351;28;19924;-62
2022/12/24 10:06:44;;;;;;;;;;;;;;;-143.57;100.00;51360.63;5079568;28;19928;-63
2022/12/24 10:09:29;;;;;;;;;;;;;;;-143.57;100.00;51358.66;5076906;28;20740;-63
2022/12/24 10:11:59;;;;;;;;;;;;;;;-143.57;100.00;51362.63;5079481;28;19963;-62
2022/12/24 10:14:26;;;;;;;;;;;;;;;-143.57;100.00;51350.69;5079168;28;19939;-63
2022/12/24 10:16:58;;;;;;;;;;;;;;;-143.57;100.00;51386.47;5080950;28;19954;-62
2022/12/24 10:19:44;;;;;;;;;;;;;;;-143.57;100.00;51358.66;5077430;28;19932;-62
2022/12/24 10:22:20;;;;;;;;;;;;;;;-143.57;100.00;51390.47;5081998;28;19931;-62
2022/12/24 10:24:47;;;;;;;;;;;;;;;-143.57;100.00;51344.72;5076769;28;20234;-63
2022/12/24 10:27:18;;;;;;;;;;;;;;;-143.57;100.00;51374.56;5076678;28;19951;-62
2022/12/24 10:29:46;;;;;;;;;;;;;;;-143.57;100.00;51366.59;5076109;28;19932;-60
2022/12/24 10:32:18;;;;;;;;;;;;;;;-143.57;100.00;51334.78;5083176;28;20537;-62
2022/12/24 10:34:48;;;;;;;;;;;;;;;-143.57;100.00;51344.72;5078473;28;19932;-62
2022/12/24 10:37:19;;;;;;;;;;;;;;;-143.57;100.00;51358.66;5077091;28;20022;-62
2022/12/24 10:39:45;;;;;;;;;;;;;;;-143.57;100.00;51362.63;5076052;28;19928;-62
2022/12/24 10:42:13;;;;;;;;;;;;;;;-143.57;100.00;51362.63;5075232;28;20019;-63
2022/12/24 10:44:40;;;;;;;;;;;;;;;-143.57;100.00;51342.75;5075644;28;19990;-62
2022/12/24 10:47:08;;;;;;;;;;;;;;;-143.57;100.00;51364.63;5077204;28;19935;-62
2022/12/24 10:49:38;;;;;;;;;;;;;;;-143.57;100.00;51334.78;5078451;28;19943;-63
2022/12/24 10:52:08;;;;;;;;;;;;;;;-143.57;100.00;51358.66;5075988;28;19936;-62
2022/12/24 10:54:38;;;;;;;;;;;;;;;-143.57;100.00;51350.69;5079326;28;19975;-62
2022/12/24 10:57:21;;;;;;;;;;;;;;;-143.57;100.00;51374.56;5071700;28;19932;-63
2022/12/24 10:59:52;;;;;;;;;;;;;;;-143.57;100.00;51338.78;5054252;28;19935;-63
2022/12/24 11:02:27;;;;;;;;;;;;;;;-143.57;100.00;51384.50;5074337;28;19964;-62
2022/12/24 11:04:58;;;;;;;;;;;;;;;-143.57;100.00;51342.75;5079479;28;19932;-63
2022/12/24 11:07:25;;;;;;;;;;;;;;;-143.57;100.00;51378.53;5055152;28;19932;-62
2022/12/24 11:09:54;;;;;;;;;;;;;;;-143.57;100.00;51390.47;5078839;28;19924;-62
2022/12/24 11:12:22;;;;;;;;;;;;;;;-143.57;100.00;51352.69;5074285;28;19932;-62
2022/12/24 11:14:58;;;;;;;;;;;;;;;-143.57;100.00;51376.53;5079822;28;19990;-62
2022/12/24 11:17:25;;;;;;;;;;;;;;;-143.57;100.00;51342.75;5069776;28;19936;-63
2022/12/24 11:19:52;;;;;;;;;;;;;;;-143.57;100.00;51368.59;5077398;28;19936;-63
2022/12/24 11:22:21;;;;;;;;;;;;;;;-143.57;100.00;51380.50;5073566;28;19928;-63
2022/12/24 11:24:57;;;;;;;;;;;;;;;-143.57;100.00;51346.72;5079552;28;19927;-63
2022/12/24 11:27:39;;;;;;;;;;;;;;;-143.57;100.00;51374.56;5072395;28;20025;-63
2022/12/24 11:30:12;;;;;;;;;;;;;;;-143.57;100.00;51358.66;5078147;28;19928;-63
2022/12/24 11:32:39;;;;;;;;;;;;;;;-143.57;100.00;51366.59;5075931;28;19935;-63
2022/12/24 11:35:06;;;;;;;;;;;;;;;-143.57;100.00;51354.66;5078134;28;19919;-63
2022/12/24 11:37:32;;;;;;;;;;;;;;;-143.57;100.00;51334.78;5077618;28;20387;-63
2022/12/24 11:40:00;;;;;;;;;;;;;;;-143.57;100.00;51372.56;5074010;28;19932;-64
2022/12/24 11:42:35;;;;;;;;;;;;;;;-143.57;100.00;51362.63;5075689;28;20441;-63
2022/12/24 11:45:04;;;;;;;;;;;;;;;-143.57;100.00;51358.66;5073234;28;19924;-63
2022/12/24 11:47:36;;;;;;;;;;;;;;;-143.57;100.00;51354.66;5073771;28;19924;-63
2022/12/24 11:50:19;;;;;;;;;;;;;;;-143.57;100.00;51354.66;5072846;28;19981;-63
2022/12/24 11:52:48;;;;;;;;;;;;;;;-143.57;100.00;51362.63;5077937;28;19932;-64
2022/12/24 11:55:27;;;;;;;;;;;;;;;-143.57;100.00;51386.47;5073169;28;19928;-64
2022/12/24 11:58:04;;;;;;;;;;;;;;;-143.57;100.00;51374.56;5071896;28;19928;-63
2022/12/24 12:00:31;;;;;;;;;;;;;;;-143.57;100.00;51382.50;5075314;28;20619;-63
2022/12/24 12:03:00;;;;;;;;;;;;;;;-143.57;100.00;51358.66;5075769;28;19982;-63
2022/12/24 12:05:31;;;;;;;;;;;;;;;-143.57;100.00;51346.72;5073168;28;19928;-63
2022/12/24 12:08:17;;;;;;;;;;;;;;;-143.57;100.00;51362.63;5075135;28;19928;-64
2022/12/24 12:10:45;;;;;;;;;;;;;;;-143.57;100.00;51394.44;5071142;28;20009;-64
2022/12/24 12:13:14;;;;;;;;;;;;;;;-143.57;100.00;51350.69;5067447;28;20008;-64
2022/12/24 12:15:41;;;;;;;;;;;;;;;-143.57;100.00;51342.75;5071340;28;19931;-63
2022/12/24 12:18:11;;;;;;;;;;;;;;;-143.57;100.00;51358.66;5067309;28;19931;-64
2022/12/24 12:20:41;;;;;;;;;;;;;;;-143.57;100.00;51358.66;5068404;28;19931;-63
2022/12/24 12:23:26;;;;;;;;;;;;;;;-143.57;100.00;51388.47;5065964;28;19968;-64
2022/12/24 12:25:56;;;;;;;;;;;;;;;-143.57;100.00;51374.56;5065987;28;19951;-64
2022/12/24 12:28:35;;;;;;;;;;;;;;;-143.57;100.00;51382.50;5068206;28;19931;-63
2022/12/24 12:31:04;;;;;;;;;;;;;;;-143.57;100.00;51350.69;5074941;28;19986;-63